Time;durP1;ratioP1;P1;durP2;ratioP2;P2;SDS_P1;SDS_P2;PMS_P1;PMS_P2;Temp;Humidity;BMP_temperature;BMP_pressure;BME280_temperature;BME280_humidity;BME280_pressure;Samples;Min_cycle;Max_cycle;Signal;HPM_P1;HPM_P2
2023/02/27 00:00:00;;;;;;;2.25;1.98;;;2.90;53.60;;;-2.47;75.62;95202.53;4955491;28;20018;-49
2023/02/27 00:02:29;;;;;;;2.30;2.00;;;2.90;53.60;;;-2.44;75.55;95208.16;4957632;28;20386;-51
2023/02/27 00:04:59;;;;;;;2.65;1.98;;;2.90;53.60;;;-2.46;75.76;95204.13;4957570;28;20069;-52
2023/02/27 00:07:28;;;;;;;3.40;2.30;;;2.90;53.60;;;-2.41;76.06;95210.41;4959530;28;20076;-52
2023/02/27 00:09:54;;;;;;;1.90;1.73;;;2.90;53.60;;;-2.41;75.78;95220.81;4957800;28;20049;-53
2023/02/27 00:12:22;;;;;;;3.00;2.33;;;2.90;53.70;;;-2.42;76.23;95216.59;4955558;28;20066;-52
2023/02/27 00:14:54;;;;;;;2.97;2.10;;;2.90;53.70;;;-2.45;75.67;95211.75;4958794;28;20056;-51
2023/02/27 00:17:20;;;;;;;4.93;2.10;;;2.90;53.70;;;-2.39;75.42;95211.00;4954372;28;20096;-53
2023/02/27 00:19:46;;;;;;;4.22;2.20;;;2.90;53.70;;;-2.41;74.98;95215.63;4956793;28;20185;-49
2023/02/27 00:22:12;;;;;;;2.78;2.03;;;2.90;53.70;;;-2.47;74.93;95221.59;4958301;28;20080;-50
2023/02/27 00:24:38;;;;;;;2.60;2.00;;;3.00;53.70;;;-2.42;74.49;95192.31;4956577;28;20108;-50
2023/02/27 00:27:06;;;;;;;3.53;2.20;;;2.90;53.60;;;-2.41;74.40;95202.56;4959558;28;20049;-49
2023/02/27 00:29:32;;;;;;;3.28;2.25;;;2.90;53.50;;;-2.38;73.65;95199.56;4934976;28;20030;-54
2023/02/27 00:31:59;;;;;;;2.42;1.92;;;3.00;53.60;;;-2.36;73.20;95189.72;4961664;28;20544;-54
2023/02/27 00:34:27;;;;;;;2.33;1.92;;;2.90;53.50;;;-2.34;73.60;95176.50;4961379;28;20022;-51
2023/02/27 00:36:53;;;;;;;2.55;2.05;;;2.90;53.50;;;-2.30;74.31;95193.38;4952813;28;20113;-51
2023/02/27 00:39:19;;;;;;;7.43;2.33;;;3.00;53.50;;;-2.33;74.44;95178.09;4969992;28;20032;-50
2023/02/27 00:41:45;;;;;;;3.33;2.17;;;3.00;53.50;;;-2.35;75.07;95183.53;4961746;28;20018;-51
2023/02/27 00:44:13;;;;;;;3.00;2.10;;;3.00;53.50;;;-2.38;74.82;95193.56;4957398;28;20034;-54
2023/02/27 00:46:39;;;;;;;2.85;1.90;;;2.90;53.40;;;-2.38;74.50;95191.75;4955891;28;20029;-51
2023/02/27 00:49:08;;;;;;;4.28;2.25;;;2.90;53.40;;;-2.40;75.20;95191.13;4958327;28;20026;-52
2023/02/27 00:51:36;;;;;;;3.83;2.20;;;2.90;53.50;;;-2.39;75.00;95191.94;4953093;28;20030;-48
2023/02/27 00:54:02;;;;;;;3.72;2.15;;;3.00;53.50;;;-2.41;75.70;95184.31;4959706;28;20026;-48
2023/02/27 00:56:29;;;;;;;3.00;2.40;;;3.00;53.50;;;-2.47;75.73;95185.09;4954879;28;20026;-51
2023/02/27 00:58:57;;;;;;;2.58;2.13;;;2.90;53.50;;;-2.42;74.88;95195.72;4952307;28;20784;-52
2023/02/27 01:01:23;;;;;;;4.60;2.75;;;3.00;53.50;;;-2.44;75.40;95195.13;4951841;28;20029;-53
2023/02/27 01:03:48;;;;;;;2.55;2.25;;;3.00;53.50;;;-2.49;75.75;95192.28;4957583;28;20097;-50
2023/02/27 01:06:14;;;;;;;4.68;2.40;;;3.00;53.60;;;-2.42;75.69;95202.75;4957022;28;20080;-48
2023/02/27 01:08:40;;;;;;;4.65;2.42;;;2.90;53.50;;;-2.39;75.59;95197.16;4971106;28;20034;-51
2023/02/27 01:11:28;;;;;;;3.67;2.28;;;2.90;53.50;;;-2.45;75.96;95201.31;4958291;28;20041;-48
2023/02/27 01:13:54;;;;;;;2.80;2.17;;;2.90;53.60;;;-2.44;76.17;95191.72;4956793;28;20345;-51
2023/02/27 01:16:20;;;;;;;2.78;2.13;;;2.90;53.60;;;-2.48;75.79;95201.72;4970505;28;20034;-49
2023/02/27 01:18:46;;;;;;;3.58;2.40;;;2.90;53.70;;;-2.43;75.97;95201.16;4953828;28;20176;-54
2023/02/27 01:21:12;;;;;;;3.28;2.50;;;2.90;53.60;;;-2.44;76.41;95200.34;4958433;28;20033;-48
2023/02/27 01:23:38;;;;;;;2.42;2.13;;;2.90;53.70;;;-2.45;76.19;95209.16;4958093;28;20100;-53
2023/02/27 01:26:04;;;;;;;3.00;1.98;;;2.90;53.70;;;-2.49;76.24;95194.09;4956185;28;20030;-48
2023/02/27 01:28:30;;;;;;;5.65;2.83;;;2.90;53.80;;;-2.45;76.47;95203.94;4939418;28;20042;-47
2023/02/27 01:31:02;;;;;;;4.07;2.10;;;2.90;53.80;;;-2.50;76.69;95174.22;4954294;28;21325;-48
2023/02/27 01:33:27;;;;;;;3.15;2.15;;;2.90;53.80;;;-2.48;75.91;95190.47;4951915;28;20018;-49
2023/02/27 01:35:54;;;;;;;2.92;2.10;;;2.90;53.80;;;-2.52;76.21;95179.63;4958958;28;20033;-48
2023/02/27 01:38:22;;;;;;;3.80;2.30;;;2.90;53.80;;;-2.48;76.52;95177.44;4957638;28;20014;-50
2023/02/27 01:40:48;;;;;;;2.95;2.38;;;2.90;53.80;;;-2.47;75.95;95169.44;4958653;28;20528;-48
2023/02/27 01:43:21;;;;;;;3.33;2.08;;;2.90;53.80;;;-2.45;75.69;95177.03;4960832;28;20058;-49
2023/02/27 01:45:48;;;;;;;2.92;2.35;;;2.90;53.80;;;-2.47;75.57;95171.25;4962721;28;20026;-50
2023/02/27 01:48:44;;;;;;;5.28;2.40;;;2.90;53.80;;;-2.44;75.91;95178.69;4959362;28;20026;-48
2023/02/27 01:51:19;;;;;;;3.38;2.35;;;2.90;53.80;;;-2.46;76.00;95170.22;4958447;28;20034;-47
2023/02/27 01:53:54;;;;;;;3.28;2.40;;;2.90;53.80;;;-2.47;75.40;95190.28;4957989;28;20029;-50
2023/02/27 01:56:28;;;;;;;3.22;2.42;;;2.90;53.80;;;-2.42;76.11;95190.50;4960723;28;20095;-50
2023/02/27 01:59:05;;;;;;;3.53;2.17;;;2.90;53.90;;;-2.42;75.75;95182.69;4957440;28;20030;-48
2023/02/27 02:01:36;;;;;;;5.22;2.40;;;2.90;53.90;;;-2.41;75.58;95178.28;4958690;28;20032;-47
2023/02/27 02:04:33;;;;;;;3.33;2.10;;;2.90;53.80;;;-2.47;75.49;95176.44;4957420;28;20030;-52
2023/02/27 02:07:08;;;;;;;7.28;2.20;;;2.90;53.80;;;-2.47;74.60;95160.81;4971506;28;20060;-48
2023/02/27 02:09:47;;;;;;;5.03;2.40;;;2.90;53.80;;;-2.42;75.12;95181.88;4959432;28;20026;-47
2023/02/27 02:12:21;;;;;;;2.63;1.95;;;2.90;53.80;;;-2.42;74.83;95153.19;4961237;28;21282;-49
2023/02/27 02:14:53;;;;;;;2.63;2.13;;;2.90;53.80;;;-2.38;74.16;95165.66;4958894;28;20026;-48
2023/02/27 02:18:11;;;;;;;3.08;2.28;;;2.90;53.70;;;-2.43;74.17;95178.47;4959621;28;20062;-49
2023/02/27 02:21:26;;;;;;;2.50;2.30;;;2.90;53.70;;;-2.41;74.26;95173.06;4962374;28;20040;-48
2023/02/27 02:24:35;;;;;;;3.55;2.28;;;2.90;53.70;;;-2.40;74.40;95170.25;4960434;28;20030;-48
2023/02/27 02:27:52;;;;;;;3.40;2.25;;;2.90;53.70;;;-2.40;74.80;95174.69;4953942;28;20046;-50
2023/02/27 02:30:54;;;;;;;3.42;2.53;;;2.90;53.70;;;-2.40;74.64;95174.69;4923643;28;20038;-48
2023/02/27 02:33:51;;;;;;;2.50;2.28;;;2.90;53.80;;;-2.31;74.44;95176.13;4954312;28;20026;-48
2023/02/27 02:37:25;;;;;;;3.00;2.13;;;2.90;53.70;;;-2.40;74.68;95167.66;4959539;28;20081;-48
2023/02/27 02:40:55;;;;;;;4.40;2.50;;;2.90;53.70;;;-2.38;74.66;95181.31;4954392;28;20567;-48
2023/02/27 02:44:03;;;;;;;3.60;2.53;;;2.90;53.80;;;-2.45;75.57;95158.78;4940851;28;20519;-48
2023/02/27 02:47:21;;;;;;;4.15;2.50;;;2.90;53.80;;;-2.52;76.33;95171.00;4956999;28;20026;-47
2023/02/27 02:50:21;;;;;;;3.63;2.28;;;2.90;53.80;;;-2.56;76.31;95163.56;4957826;28;20033;-50
2023/02/27 02:53:20;;;;;;;4.15;2.53;;;2.90;53.80;;;-2.58;76.72;95175.97;4933459;28;20022;-47
2023/02/27 02:56:14;;;;;;;5.93;2.40;;;2.80;53.80;;;-2.56;76.02;95165.38;4959641;28;20026;-47
2023/02/27 02:59:31;;;;;;;3.28;2.47;;;2.80;53.80;;;-2.56;76.32;95170.59;4961741;28;20444;-50
2023/02/27 03:02:15;;;;;;;3.25;2.25;;;2.80;53.90;;;-2.57;76.65;95167.19;4972123;28;20018;-48
2023/02/27 03:05:16;;;;;;;4.70;2.47;;;2.80;54.00;;;-2.62;76.21;95163.53;4959389;28;20448;-48
2023/02/27 03:08:08;;;;;;;2.92;2.30;;;2.80;54.00;;;-2.66;76.36;95144.84;4960022;28;20045;-49
2023/02/27 03:10:56;;;;;;;4.30;2.33;;;2.70;54.00;;;-2.68;76.50;95153.88;4958187;28;20064;-48
2023/02/27 03:13:40;;;;;;;3.03;2.67;;;2.80;54.10;;;-2.61;77.26;95173.75;4957765;28;20030;-48
2023/02/27 03:16:33;;;;;;;4.13;2.50;;;2.80;54.10;;;-2.65;76.81;95184.78;4972165;28;20804;-48
2023/02/27 03:19:54;;;;;;;4.05;2.30;;;2.80;54.10;;;-2.65;77.24;95187.38;4977006;23;20070;-52
2023/02/27 03:22:37;;;;;;;3.45;2.28;;;2.70;54.10;;;-2.61;77.22;95173.75;4940712;28;20047;-47
2023/02/27 03:25:11;;;;;;;4.25;2.83;;;2.70;54.10;;;-2.58;76.82;95170.75;4954648;28;20035;-52
2023/02/27 03:28:15;;;;;;;3.15;2.53;;;2.70;54.20;;;-2.63;77.18;95188.00;4926643;28;20040;-51
2023/02/27 03:31:04;;;;;;;5.78;2.55;;;2.70;54.30;;;-2.58;76.83;95189.03;4939983;28;20046;-47
2023/02/27 03:33:51;;;;;;;3.78;2.67;;;2.70;54.20;;;-2.62;76.81;95185.19;4935907;28;20311;-53
2023/02/27 03:36:53;;;;;;;4.93;2.47;;;2.70;54.30;;;-2.58;76.08;95178.59;4933151;28;20035;-49
2023/02/27 03:39:41;;;;;;;5.55;2.47;;;2.70;54.30;;;-2.55;76.46;95177.41;4918659;29;20016;-51
2023/02/27 03:42:54;;;;;;;3.15;2.40;;;2.70;54.30;;;-2.58;76.08;95157.72;4921317;29;20019;-51
2023/02/27 03:46:19;;;;;;;3.03;2.10;;;2.70;54.30;;;-2.55;75.90;95185.22;4919661;29;20557;-47
2023/02/27 03:48:46;;;;;;;3.70;2.15;;;2.70;54.30;;;-2.56;75.53;95186.22;4911181;29;20043;-47
2023/02/27 03:51:21;;;;;;;2.75;2.17;;;2.80;54.30;;;-2.54;75.12;95178.19;4920253;29;20031;-52
2023/02/27 03:54:20;;;;;;;3.40;2.30;;;2.70;54.20;;;-2.51;75.01;95176.00;4903370;29;20027;-50
2023/02/27 03:57:05;;;;;;;3.97;2.17;;;2.80;54.20;;;-2.53;74.58;95193.66;4916472;28;20042;-51
2023/02/27 03:59:35;;;;;;;3.08;2.17;;;2.70;54.20;;;-2.58;74.80;95168.16;4934784;28;20019;-52
2023/02/27 04:02:03;;;;;;;2.25;1.90;;;2.70;54.10;;;-2.56;75.24;95170.59;4913128;28;20417;-50
2023/02/27 04:04:31;;;;;;;4.78;2.28;;;2.70;54.10;;;-2.56;75.22;95186.22;4915585;29;20031;-51
2023/02/27 04:07:21;;;;;;;2.83;2.30;;;2.80;54.10;;;-2.58;76.18;95194.22;4900260;29;20125;-52
2023/02/27 04:10:20;;;;;;;5.45;2.63;;;2.70;54.10;;;-2.59;74.58;95187.41;4919909;29;20413;-51
2023/02/27 04:13:04;;;;;;;2.00;1.67;;;2.70;54.00;;;-2.56;74.79;95191.44;4935221;28;20023;-47
2023/02/27 04:15:59;;;;;;;2.42;2.10;;;2.70;53.60;;;-2.58;74.11;95193.44;4920078;29;20374;-51
2023/02/27 04:18:49;;;;;;;3.38;2.10;;;2.70;54.00;;;-2.59;74.52;95204.88;4919206;28;20047;-49
2023/02/27 04:22:09;;;;;;;3.05;1.98;;;2.70;54.00;;;-2.63;74.06;95195.81;4916914;29;20385;-52
2023/02/27 04:25:16;;;;;;;2.45;2.10;;;2.60;54.00;;;-2.62;74.09;95198.22;4919296;29;20549;-53
2023/02/27 04:28:11;;;;;;;3.25;2.28;;;2.60;54.00;;;-2.59;74.47;95189.22;4933555;28;20382;-50
2023/02/27 04:31:01;;;;;;;2.95;2.33;;;2.60;54.00;;;-2.60;75.08;95203.25;4929459;28;20142;-51
2023/02/27 04:33:53;;;;;;;2.90;2.10;;;2.60;54.00;;;-2.59;74.49;95212.69;4920986;29;20178;-51
2023/02/27 04:36:44;;;;;;;5.15;2.47;;;2.60;54.00;;;-2.53;74.72;95217.16;4934685;28;20089;-55
2023/02/27 04:39:28;;;;;;;3.90;2.10;;;2.60;54.00;;;-2.58;74.81;95206.47;4934439;28;20139;-50
2023/02/27 04:42:10;;;;;;;3.40;2.38;;;2.60;54.10;;;-2.54;74.87;95202.47;4932396;28;20046;-54
2023/02/27 04:44:39;;;;;;;3.58;2.63;;;2.60;54.10;;;-2.56;75.31;95213.13;4917639;29;20066;-51
2023/02/27 04:47:12;;;;;;;3.35;2.28;;;2.70;54.10;;;-2.58;75.19;95220.31;4918751;29;20157;-47
2023/02/27 04:50:32;;;;;;;5.43;2.47;;;2.70;54.10;;;-2.56;75.42;95225.34;4916075;29;20390;-50
2023/02/27 04:53:28;;;;;;;3.20;2.45;;;2.70;54.10;;;-2.49;75.28;95222.78;4921550;29;20078;-54
2023/02/27 04:56:09;;;;;;;2.60;2.30;;;2.70;54.10;;;-2.55;75.33;95221.75;4928858;28;20391;-54
2023/02/27 04:58:55;;;;;;;2.83;2.25;;;2.70;54.10;;;-2.54;75.69;95232.97;4915792;29;20541;-46
2023/02/27 05:01:44;;;;;;;3.25;2.40;;;2.70;54.10;;;-2.59;75.23;95229.16;4920453;29;20487;-50
2023/02/27 05:04:19;;;;;;;4.38;2.50;;;2.70;54.00;;;-2.47;75.33;95246.88;4931454;28;20405;-50
2023/02/27 05:06:50;;;;;;;5.35;2.65;;;2.70;54.10;;;-2.48;75.56;95240.03;4935080;28;20688;-51
2023/02/27 05:09:45;;;;;;;4.30;2.38;;;2.70;54.10;;;-2.53;75.22;95237.22;4931942;28;20173;-45
2023/02/27 05:12:27;;;;;;;2.85;2.50;;;2.80;54.10;;;-2.57;75.40;95248.03;4933066;28;20054;-52
2023/02/27 05:15:15;;;;;;;3.15;2.63;;;2.80;54.10;;;-2.54;75.48;95244.22;4933844;28;20073;-45
2023/02/27 05:18:06;;;;;;;4.15;2.40;;;2.70;54.40;;;-2.57;75.56;95248.03;4930562;28;20500;-49
2023/02/27 05:21:04;;;;;;;2.83;2.25;;;2.80;54.10;;;-2.66;75.15;95243.94;4915167;29;20042;-50
2023/02/27 05:24:12;;;;;;;5.63;2.45;;;2.80;54.00;;;-2.58;75.05;95256.81;4917466;29;20027;-47
2023/02/27 05:27:19;;;;;;;3.88;2.45;;;2.70;54.00;;;-2.57;75.25;95245.41;4915557;29;20035;-47
2023/02/27 05:29:55;;;;;;;4.30;2.65;;;2.70;54.00;;;-2.54;74.61;95252.03;4919165;29;20030;-47
2023/02/27 05:32:52;;;;;;;3.17;2.25;;;2.70;54.00;;;-2.54;74.10;95251.22;4917655;29;20027;-46
2023/02/27 05:36:14;;;;;;;3.65;2.30;;;2.80;54.00;;;-2.63;74.30;95263.63;4935794;29;20403;-49
2023/02/27 05:38:50;;;;;;;3.10;2.40;;;2.80;54.00;;;-2.53;74.41;95260.69;4921495;29;20054;-48
2023/02/27 05:41:33;;;;;;;3.05;2.38;;;2.70;53.90;;;-2.56;74.40;95267.09;4933263;29;20090;-49
2023/02/27 05:44:07;;;;;;;3.70;2.15;;;2.70;54.00;;;-2.63;74.58;95271.47;4918886;29;20616;-48
2023/02/27 05:46:43;;;;;;;5.82;2.50;;;2.80;53.90;;;-2.64;73.77;95262.81;4920629;29;20019;-51
2023/02/27 05:50:00;;;;;;;4.68;2.58;;;2.70;53.80;;;-2.64;74.49;95265.41;4918491;29;20031;-49
2023/02/27 05:52:33;;;;;;;4.10;2.83;;;2.70;53.80;;;-2.60;73.88;95266.66;4896136;29;20537;-47
2023/02/27 05:55:36;;;;;;;3.67;2.35;;;2.70;53.80;;;-2.65;74.16;95258.59;4931675;29;20239;-50
2023/02/27 05:58:59;;;;;;;4.57;2.95;;;2.80;53.80;;;-2.60;74.51;95265.84;4934562;29;20536;-47
2023/02/27 06:01:25;;;;;;;3.00;2.60;;;2.70;53.80;;;-2.64;74.73;95252.38;4924735;29;20277;-49
2023/02/27 06:03:52;;;;;;;3.97;2.22;;;2.70;53.80;;;-2.58;74.40;95282.91;4932423;29;20406;-49
2023/02/27 06:06:21;;;;;;;3.88;2.47;;;2.70;53.80;;;-2.62;74.31;95271.25;4931507;29;20252;-48
2023/02/27 06:08:47;;;;;;;4.63;2.80;;;2.70;53.80;;;-2.66;74.40;95269.22;4929345;28;20022;-48
2023/02/27 06:11:16;;;;;;;3.55;2.38;;;2.70;53.80;;;-2.61;74.72;95283.28;4916927;29;20040;-51
2023/02/27 06:13:42;;;;;;;4.25;2.30;;;2.70;53.80;;;-2.66;74.36;95277.06;4933074;28;20020;-50
2023/02/27 06:16:14;;;;;;;4.28;2.40;;;2.70;53.80;;;-2.65;74.53;95276.84;4917743;29;20677;-47
2023/02/27 06:18:40;;;;;;;5.50;2.75;;;2.70;53.80;;;-2.66;74.60;95272.63;4929781;28;20043;-51
2023/02/27 06:21:06;;;;;;;3.53;2.58;;;2.70;53.80;;;-2.66;74.65;95283.06;4922578;29;20034;-51
2023/02/27 06:23:32;;;;;;;3.92;2.60;;;2.70;53.80;;;-2.69;74.89;95280.84;4923199;29;20027;-48
2023/02/27 06:25:58;;;;;;;4.10;2.92;;;2.70;53.80;;;-2.66;75.07;95285.69;4899839;29;20038;-52
2023/02/27 06:28:24;;;;;;;4.13;2.78;;;2.70;53.80;;;-2.81;75.27;95284.94;4918949;29;20053;-48
2023/02/27 06:30:56;;;;;;;4.25;2.72;;;2.70;53.70;;;-2.84;75.21;95287.94;4919027;28;20545;-50
2023/02/27 06:33:24;;;;;;;5.25;2.38;;;2.70;53.70;;;-2.85;75.13;95301.94;4920525;29;20023;-52
2023/02/27 06:35:51;;;;;;;5.38;2.63;;;2.60;53.60;;;-2.79;75.50;95306.41;4880370;28;20718;-49
2023/02/27 06:38:17;;;;;;;2.67;2.30;;;2.60;53.70;;;-2.85;75.50;95309.75;4924335;29;20085;-53
2023/02/27 06:40:43;;;;;;;4.45;2.58;;;2.60;54.30;;;-2.79;75.07;95322.06;4922963;29;20027;-46
2023/02/27 06:43:09;;;;;;;3.72;2.80;;;2.70;53.80;;;-2.80;75.23;95313.44;4921005;29;20105;-52
2023/02/27 06:45:35;;;;;;;6.40;3.08;;;2.60;53.70;;;-2.75;75.55;95320.69;4923034;29;20031;-50
2023/02/27 06:48:01;;;;;;;5.15;2.90;;;2.70;53.80;;;-2.77;75.24;95320.06;4920759;29;20415;-51
2023/02/27 06:50:27;;;;;;;3.33;2.58;;;2.70;53.80;;;-2.77;75.14;95319.28;4920155;29;20114;-52
2023/02/27 06:52:53;;;;;;;3.75;2.67;;;2.70;53.70;;;-2.77;74.87;95314.06;4922103;28;20062;-48
2023/02/27 06:55:21;;;;;;;4.25;3.00;;;2.70;53.70;;;-2.69;75.44;95333.00;4919566;29;20051;-47
2023/02/27 06:57:48;;;;;;;3.72;2.72;;;2.80;53.70;;;-2.69;75.28;95330.38;4916694;29;20019;-50
2023/02/27 07:00:16;;;;;;;4.18;2.70;;;2.80;53.60;;;-2.71;75.47;95321.13;4921786;29;20082;-50
2023/02/27 07:02:42;;;;;;;4.75;2.80;;;2.80;53.60;;;-2.63;75.02;95328.81;4933908;28;20052;-46
2023/02/27 07:05:12;;;;;;;4.03;2.67;;;2.90;53.60;;;-2.63;74.96;95334.84;4923395;28;20532;-48
2023/02/27 07:07:39;;;;;;;4.85;3.05;;;2.90;53.60;;;-2.56;74.64;95340.13;4935922;28;20023;-45
2023/02/27 07:10:11;;;;;;;4.10;2.40;;;3.00;53.60;;;-2.52;74.30;95335.31;4939464;28;20035;-48
2023/02/27 07:12:39;;;;;;;3.58;2.50;;;3.00;53.50;;;-2.58;74.96;95334.25;4932834;28;20158;-46
2023/02/27 07:15:08;;;;;;;3.45;2.70;;;3.00;53.50;;;-2.57;74.88;95349.75;4936332;28;20039;-50
2023/02/27 07:17:34;;;;;;;4.50;2.60;;;3.10;53.40;;;-2.43;74.87;95344.63;4920188;29;20092;-52
2023/02/27 07:19:59;;;;;;;3.58;2.80;;;3.10;53.50;;;-2.40;74.34;95339.81;4921420;28;20039;-52
2023/02/27 07:22:25;;;;;;;4.40;2.88;;;3.10;53.40;;;-2.50;74.15;95347.19;4935810;28;20093;-55
2023/02/27 07:24:51;;;;;;;3.90;3.00;;;3.20;53.40;;;-2.46;74.23;95342.38;4935350;28;20027;-46
2023/02/27 07:27:17;;;;;;;3.33;2.50;;;3.20;53.30;;;-2.42;74.52;95348.84;4921351;29;20386;-48
2023/02/27 07:29:43;;;;;;;4.60;2.88;;;3.20;53.30;;;-2.37;73.91;95355.09;4922712;28;20031;-48
2023/02/27 07:32:10;;;;;;;4.55;2.90;;;3.30;53.40;;;-2.33;74.13;95352.91;4934935;28;20081;-51
2023/02/27 07:34:35;;;;;;;3.60;2.80;;;3.30;53.30;;;-2.26;73.46;95356.38;4915081;29;20506;-52
2023/02/27 07:37:01;;;;;;;3.70;2.85;;;3.30;53.30;;;-2.26;73.85;95348.53;4917006;29;20026;-49
2023/02/27 07:39:27;;;;;;;3.90;2.55;;;3.40;53.20;;;-2.20;73.58;95353.00;4914753;29;20027;-48
2023/02/27 07:41:53;;;;;;;4.38;2.83;;;3.40;53.20;;;-2.27;73.53;95362.59;4920506;29;20023;-53
2023/02/27 07:44:19;;;;;;;4.10;2.80;;;3.50;53.20;;;-2.22;73.43;95352.41;4915569;29;20035;-48
2023/02/27 07:46:46;;;;;;;3.50;2.80;;;3.50;53.10;;;-2.20;72.65;95360.84;4934769;28;20042;-51
2023/02/27 07:49:12;;;;;;;3.03;2.72;;;3.50;53.00;;;-2.26;73.69;95361.59;4922019;29;20033;-47
2023/02/27 07:51:38;;;;;;;3.42;2.83;;;3.50;52.90;;;-2.16;73.36;95367.31;4934094;28;20110;-47
2023/02/27 07:54:04;;;;;;;6.78;3.15;;;3.50;52.90;;;-2.20;73.44;95360.84;4923973;28;20050;-52
2023/02/27 07:56:30;;;;;;;4.28;2.70;;;3.50;52.90;;;-2.21;73.58;95367.06;4936335;28;20061;-51
2023/02/27 07:58:58;;;;;;;3.90;2.75;;;3.60;52.90;;;-2.22;73.41;95364.66;4918165;29;20077;-49
2023/02/27 08:01:24;;;;;;;5.68;2.67;;;3.60;52.90;;;-2.24;72.82;95366.63;4924893;28;20031;-49
2023/02/27 08:03:50;;;;;;;5.75;2.72;;;3.60;52.80;;;-2.16;73.64;95367.31;4892037;28;20738;-48
2023/02/27 08:06:16;;;;;;;3.67;2.63;;;3.60;52.80;;;-2.13;72.49;95379.97;4920056;28;20113;-46
2023/02/27 08:08:42;;;;;;;4.05;2.58;;;3.60;52.80;;;-2.12;73.08;95375.56;4934630;28;20505;-45
2023/02/27 08:11:09;;;;;;;4.10;2.83;;;3.70;52.70;;;-2.15;72.93;95381.97;4920539;28;20937;-47
2023/02/27 08:13:35;;;;;;;3.75;2.47;;;3.70;52.70;;;-1.98;73.09;95385.06;4936311;28;20105;-50
2023/02/27 08:16:01;;;;;;;5.57;2.75;;;3.80;52.60;;;-2.02;72.89;95386.47;4918023;29;20035;-51
2023/02/27 08:18:27;;;;;;;4.28;2.80;;;3.90;52.60;;;-2.06;72.25;95382.63;4920827;28;20050;-47
2023/02/27 08:20:56;;;;;;;5.95;3.00;;;3.90;52.50;;;-1.96;72.51;95384.91;4918395;28;20106;-46
2023/02/27 08:23:22;;;;;;;5.00;2.70;;;4.00;52.40;;;-2.03;72.04;95382.25;4934691;28;20033;-47
2023/02/27 08:25:48;;;;;;;3.70;2.88;;;4.00;52.30;;;-2.05;72.33;95392.06;4920822;29;20050;-51
2023/02/27 08:28:15;;;;;;;4.95;3.00;;;4.10;52.20;;;-1.92;72.64;95380.91;4935306;28;20118;-47
2023/02/27 08:30:41;;;;;;;2.80;2.25;;;4.10;52.10;;;-1.98;72.11;95394.72;4935407;28;20375;-50
2023/02/27 08:33:06;;;;;;;3.78;2.53;;;4.10;52.00;;;-1.84;72.28;95398.22;4919573;29;20058;-49
2023/02/27 08:35:32;;;;;;;3.28;2.42;;;4.20;52.00;;;-1.82;71.94;95404.84;4920521;29;20035;-50
2023/02/27 08:38:02;;;;;;;4.85;2.78;;;4.20;52.00;;;-1.70;72.02;95400.72;4915111;29;20019;-50
2023/02/27 08:40:27;;;;;;;4.22;2.42;;;4.30;52.00;;;-1.79;71.25;95391.41;4919747;29;20034;-50
2023/02/27 08:42:53;;;;;;;3.10;2.50;;;4.30;51.90;;;-1.92;71.36;95405.19;4934213;28;20019;-48
2023/02/27 08:45:19;;;;;;;4.97;2.85;;;4.30;51.70;;;-1.89;71.36;95396.19;4920691;29;20033;-53
2023/02/27 08:47:45;;;;;;;2.83;2.40;;;4.30;51.70;;;-1.84;71.94;95404.25;4921668;29;20062;-50
2023/02/27 08:50:11;;;;;;;3.22;2.45;;;4.40;51.60;;;-1.83;71.35;95410.28;4922290;29;20438;-50
2023/02/27 08:52:38;;;;;;;4.47;2.83;;;4.40;51.60;;;-1.83;71.54;95413.69;4918928;29;20030;-50
2023/02/27 08:55:07;;;;;;;3.92;2.80;;;4.40;51.50;;;-1.81;71.83;95419.53;4931208;28;20491;-46
2023/02/27 08:57:36;;;;;;;4.43;2.67;;;4.40;51.50;;;-1.85;71.83;95410.47;4914571;29;20599;-47
2023/02/27 09:00:07;;;;;;;2.65;2.38;;;4.30;51.40;;;-1.79;71.04;95421.94;4920125;29;20030;-47
2023/02/27 09:02:33;;;;;;;5.65;2.83;;;4.40;51.40;;;-1.67;71.54;95426.44;4918826;29;20028;-46
2023/02/27 09:05:00;;;;;;;4.20;2.78;;;4.40;51.40;;;-1.52;70.71;95433.38;4918542;29;20043;-50
2023/02/27 09:07:29;;;;;;;3.08;2.47;;;4.40;51.50;;;-1.79;71.33;95429.78;4921102;29;20497;-47
2023/02/27 09:09:54;;;;;;;3.55;2.63;;;4.40;51.40;;;-1.85;71.26;95433.97;4922647;29;20094;-50
2023/02/27 09:12:20;;;;;;;4.35;2.63;;;4.50;51.40;;;-1.74;71.55;95435.25;4929594;28;20035;-50
2023/02/27 09:14:46;;;;;;;4.30;3.17;;;4.50;51.30;;;-1.67;71.52;95436.88;4919859;29;20027;-45
2023/02/27 09:17:12;;;;;;;3.40;2.60;;;4.50;51.20;;;-1.75;70.84;95437.06;4919790;29;20027;-47
2023/02/27 09:19:38;;;;;;;2.83;2.10;;;4.60;51.20;;;-1.82;71.50;95438.81;4941819;23;20130;-47
2023/02/27 09:22:04;;;;;;;4.35;2.35;;;4.70;51.00;;;-1.66;70.30;95442.91;4899247;29;20425;-53
2023/02/27 09:24:29;;;;;;;3.92;2.45;;;4.70;51.00;;;-1.67;71.08;95447.34;4880300;29;20039;-52
2023/02/27 09:26:58;;;;;;;4.30;2.50;;;4.70;50.90;;;-1.76;71.39;95450.28;4894591;29;20026;-52
2023/02/27 09:29:26;;;;;;;4.13;2.72;;;4.80;50.80;;;-1.64;70.76;95448.78;4893221;29;20024;-47
2023/02/27 09:31:52;;;;;;;3.65;2.50;;;4.80;50.80;;;-1.71;70.79;95455.75;4897908;29;20031;-50
2023/02/27 09:34:18;;;;;;;5.05;2.92;;;4.80;50.60;;;-1.59;71.35;95467.31;4896906;29;20015;-50
2023/02/27 09:36:46;;;;;;;4.07;2.65;;;4.90;50.60;;;-1.54;70.60;95459.69;4912654;29;20454;-50
2023/02/27 09:39:14;;;;;;;4.18;2.90;;;4.90;50.70;;;-1.51;70.59;95472.34;4880993;29;20039;-51
2023/02/27 09:42:15;;;;;;;3.25;2.70;;;5.00;50.60;;;-1.45;70.32;95479.44;4896561;29;20580;-57
2023/02/27 09:45:01;;;;;;;4.30;2.90;;;5.00;50.50;;;-1.50;70.69;95475.81;4895663;29;20040;-55
2023/02/27 09:47:41;;;;;;;3.83;2.90;;;5.00;50.50;;;-1.41;70.58;95459.78;4887198;29;20032;-57
2023/02/27 09:50:44;;;;;;;4.25;2.92;;;5.10;50.40;;;-1.35;70.73;95475.66;4897676;29;20031;-50
2023/02/27 09:53:44;;;;;;;3.78;2.72;;;5.30;50.20;;;-1.37;70.57;95475.88;4892206;29;20036;-47
2023/02/27 09:56:22;;;;;;;4.35;2.67;;;5.40;50.00;;;-1.35;70.31;95486.91;4910048;29;20046;-53
2023/02/27 09:59:18;;;;;;;4.35;2.83;;;5.50;49.90;;;-1.27;69.62;95485.97;4898824;29;20450;-50
2023/02/27 10:02:58;;;;;;;4.30;3.00;;;5.70;50.00;;;-1.31;69.99;95475.09;4912676;29;20510;-47
2023/02/27 10:06:15;;;;;;;3.58;2.70;;;5.80;49.60;;;-1.36;70.01;95492.34;4904079;29;20028;-49
2023/02/27 10:09:15;;;;;;;3.63;2.88;;;5.80;49.40;;;-1.21;70.33;95501.69;4900282;29;20286;-58
2023/02/27 10:12:43;;;;;;;5.13;3.10;;;6.00;49.30;;;-1.09;69.08;95501.16;4896969;29;20114;-52
2023/02/27 10:15:29;;;;;;;3.10;2.80;;;6.10;49.20;;;-1.24;68.88;95499.47;4901600;29;20028;-56
2023/02/27 10:18:15;;;;;;;3.55;2.67;;;6.10;48.90;;;-1.33;69.33;95505.03;4918629;29;20118;-52
2023/02/27 10:21:13;;;;;;;3.70;2.63;;;6.20;48.80;;;-1.10;69.10;95513.41;4914843;29;20071;-53
2023/02/27 10:23:55;;;;;;;4.35;3.03;;;6.20;48.60;;;-1.01;69.49;95514.06;4899589;29;20042;-50
2023/02/27 10:26:32;;;;;;;3.88;2.92;;;6.20;48.60;;;-0.98;68.23;95514.47;4898047;29;21474;-46
2023/02/27 10:29:13;;;;;;;3.65;2.90;;;6.20;48.40;;;-1.05;69.06;95520.69;4912006;29;20039;-56
2023/02/27 10:31:41;;;;;;;4.38;3.00;;;6.30;49.00;;;-1.17;69.00;95520.41;4893407;29;20064;-46
2023/02/27 10:34:15;;;;;;;4.78;2.90;;;6.40;48.20;;;-1.08;69.28;95515.84;4881933;29;20031;-51
2023/02/27 10:36:46;;;;;;;5.18;3.10;;;6.40;48.10;;;-1.05;68.87;95536.38;4898928;29;20494;-53
2023/02/27 10:39:19;;;;;;;5.72;3.55;;;6.40;48.00;;;-1.09;69.47;95533.34;4897298;29;20393;-47
2023/02/27 10:41:46;;;;;;;4.18;2.90;;;6.40;47.90;;;-1.07;68.86;95539.16;4901340;29;20822;-50
2023/02/27 10:44:20;;;;;;;4.07;3.10;;;6.40;47.90;;;-0.91;68.79;95542.47;4898623;29;20023;-53
2023/02/27 10:46:47;;;;;;;5.95;2.85;;;6.40;48.00;;;-0.62;68.39;95541.41;4881260;29;20047;-51
2023/02/27 10:49:22;;;;;;;5.93;3.22;;;6.40;48.00;;;-0.68;69.06;95529.91;4862097;29;20054;-46
2023/02/27 10:52:12;;;;;;;7.53;2.85;;;6.50;48.00;;;-0.68;68.17;95531.72;4896439;29;20035;-53
2023/02/27 10:54:44;;;;;;;5.05;2.90;;;6.60;47.90;;;-0.81;67.73;95542.94;4908618;29;20166;-47
2023/02/27 10:57:32;;;;;;;4.65;3.10;;;6.60;47.90;;;-0.68;68.29;95534.34;4878807;29;20024;-49
2023/02/27 11:00:22;;;;;;;4.22;3.08;;;6.60;47.80;;;-0.80;68.23;95536.69;4901100;29;20307;-51
2023/02/27 11:02:51;;;;;;;4.55;3.22;;;6.50;47.80;;;-0.58;68.13;95545.22;4908239;29;20035;-52
2023/02/27 11:05:35;;;;;;;5.22;3.08;;;6.60;47.80;;;-0.73;67.16;95547.97;4896446;29;20082;-49
2023/02/27 11:08:35;;;;;;;6.03;3.63;;;6.70;47.80;;;-0.67;67.95;95546.41;4898597;29;20446;-50
2023/02/27 11:11:10;;;;;;;3.97;3.13;;;6.60;47.50;;;-0.73;67.33;95548.78;4877430;29;20500;-50